Time,TemperatureF,DewpointF,PressureIn,WindDirection,WindDirectionDegrees,WindSpeedMPH,WindSpeedGustMPH,Humidity,HourlyPrecipIn,Conditions,Clouds,dailyrainin,SoftwareType,DateUTC
2013-02-21 00:02:00,19.0,17.0,-100.00,NW,315,7.0,12.0,92,0.00,,,0.00,,2013-02-21 05:02:00,
2013-02-21 00:12:00,19.0,17.0,-100.00,NW,315,8.0,14.0,92,0.00,,,0.00,,2013-02-21 05:12:00,
2013-02-21 00:22:00,19.0,17.0,-100.00,NW,315,8.0,14.0,92,0.00,,,0.00,,2013-02-21 05:22:00,
2013-02-21 00:35:00,19.0,17.0,-100.00,NW,315,6.0,8.0,92,0.00,,,0.00,,2013-02-21 05:35:00,
2013-02-21 00:44:00,19.0,17.0,-100.00,NW,315,6.0,8.0,92,0.00,,,0.00,,2013-02-21 05:44:00,
2013-02-21 01:00:00,19.0,17.0,-100.00,NW,315,3.0,8.0,93,0.00,,,0.00,,2013-02-21 06:00:00,
2013-02-21 01:11:00,18.0,17.0,-100.00,NW,315,0.0,5.0,94,0.00,,,0.00,,2013-02-21 06:11:00,
2013-02-21 01:21:00,18.0,17.0,-100.00,NW,315,0.0,5.0,94,0.00,,,0.00,,2013-02-21 06:21:00,
2013-02-21 01:31:00,18.0,17.0,-100.00,NW,315,2.0,5.0,94,0.00,,,0.00,,2013-02-21 06:31:00,
2013-02-21 01:41:00,19.0,18.0,-100.00,WNW,293,3.0,5.0,94,0.00,,,0.00,,2013-02-21 06:41:00,
2013-02-21 01:51:00,19.0,18.0,-100.00,WNW,293,3.0,5.0,94,0.00,,,0.00,,2013-02-21 06:51:00,
2013-02-21 02:01:00,19.0,17.0,-100.00,NW,315,2.0,8.0,93,0.00,,,0.00,,2013-02-21 07:01:00,
2013-02-21 02:11:00,19.0,17.0,-100.00,WNW,293,1.0,9.0,92,0.00,,,0.00,,2013-02-21 07:11:00,
2013-02-21 02:21:00,19.0,17.0,-100.00,WNW,293,1.0,9.0,92,0.00,,,0.00,,2013-02-21 07:21:00,
2013-02-21 02:32:00,19.0,17.0,-100.00,NW,315,3.0,9.0,92,0.00,,,0.00,,2013-02-21 07:32:00,
2013-02-21 02:42:00,19.0,17.0,-100.00,NW,315,6.0,7.0,92,0.00,,,0.00,,2013-02-21 07:42:00,
2013-02-21 02:52:00,19.0,17.0,-100.00,NW,315,6.0,7.0,92,0.00,,,0.00,,2013-02-21 07:52:00,
2013-02-21 03:01:00,19.0,17.0,-100.00,WNW,293,5.0,5.0,92,0.00,,,0.00,,2013-02-21 08:01:00,
2013-02-21 03:11:00,19.0,17.0,-100.00,NW,315,0.0,0.0,93,0.00,,,0.00,,2013-02-21 08:11:00,
2013-02-21 03:21:00,19.0,17.0,-100.00,NW,315,0.0,0.0,93,0.00,,,0.00,,2013-02-21 08:21:00,
2013-02-21 03:32:00,19.0,17.0,-100.00,NW,315,0.0,0.0,92,0.00,,,0.00,,2013-02-21 08:32:00,
2013-02-21 03:42:00,19.0,17.0,-100.00,NW,315,0.0,0.0,93,0.00,,,0.00,,2013-02-21 08:42:00,
2013-02-21 03:52:00,19.0,17.0,-100.00,NW,315,0.0,0.0,93,0.00,,,0.00,,2013-02-21 08:52:00,
2013-02-21 04:01:00,19.0,17.0,-100.00,NNW,338,5.0,7.0,93,0.00,,,0.00,,2013-02-21 09:01:00,
2013-02-21 04:11:00,19.0,17.0,-100.00,NW,315,6.0,9.0,93,0.00,,,0.00,,2013-02-21 09:11:00,
2013-02-21 04:22:00,19.0,17.0,-100.00,NW,315,6.0,9.0,93,0.00,,,0.00,,2013-02-21 09:22:00,
2013-02-21 04:31:00,19.0,18.0,-100.00,WNW,293,3.0,6.0,94,0.00,,,0.00,,2013-02-21 09:31:00,
2013-02-21 04:41:00,19.0,18.0,-100.00,NW,315,1.0,0.0,94,0.00,,,0.00,,2013-02-21 09:41:00,
2013-02-21 04:52:00,19.0,18.0,-100.00,NW,315,1.0,0.0,94,0.00,,,0.00,,2013-02-21 09:52:00,
2013-02-21 05:01:00,19.0,17.0,-100.00,NW,315,5.0,8.0,93,0.00,,,0.00,,2013-02-21 10:01:00,
2013-02-21 05:11:00,19.0,17.0,-100.00,NW,315,5.0,8.0,93,0.00,,,0.00,,2013-02-21 10:11:00,
2013-02-21 05:21:00,18.0,16.0,-100.00,NW,315,5.0,8.0,92,0.00,,,0.00,,2013-02-21 10:21:00,
2013-02-21 05:31:00,19.0,17.0,-100.00,WNW,293,2.0,5.0,91,0.00,,,0.00,,2013-02-21 10:31:00,
2013-02-21 05:41:00,19.0,17.0,-100.00,NW,315,0.0,0.0,92,0.00,,,0.00,,2013-02-21 10:41:00,
2013-02-21 05:51:00,19.0,17.0,-100.00,NW,315,0.0,0.0,92,0.00,,,0.00,,2013-02-21 10:51:00,
2013-02-21 06:01:00,18.0,16.0,-100.00,NW,315,2.0,3.0,92,0.00,,,0.00,,2013-02-21 11:01:00,
2013-02-21 06:11:00,18.0,16.0,-100.00,NW,315,2.0,3.0,92,0.00,,,0.00,,2013-02-21 11:11:00,
2013-02-21 06:21:00,18.0,16.0,-100.00,NW,315,1.0,3.0,92,0.00,,,0.00,,2013-02-21 11:21:00,
2013-02-21 06:31:00,18.0,16.0,-100.00,NW,315,2.0,7.0,92,0.00,,,0.00,,2013-02-21 11:31:00,
2013-02-21 06:41:00,18.0,16.0,-100.00,North,0,1.0,0.0,91,0.00,,,0.00,,2013-02-21 11:41:00,
2013-02-21 06:52:00,18.0,16.0,-100.00,North,0,1.0,0.0,91,0.00,,,0.00,,2013-02-21 11:52:00,
2013-02-21 07:01:00,18.0,16.0,-100.00,WNW,293,0.0,0.0,92,0.00,,,0.00,,2013-02-21 12:01:00,
2013-02-21 07:11:00,18.0,16.0,-100.00,NW,315,0.0,0.0,92,0.00,,,0.00,,2013-02-21 12:11:00,
2013-02-21 07:21:00,18.0,16.0,-100.00,NW,315,0.0,0.0,92,0.00,,,0.00,,2013-02-21 12:21:00,
2013-02-21 07:32:00,18.0,16.0,-100.00,NE,45,0.0,0.0,93,0.00,,,0.00,,2013-02-21 12:32:00,
2013-02-21 07:42:00,18.0,16.0,-100.00,West,270,0.0,0.0,93,0.00,,,0.00,,2013-02-21 12:42:00,
2013-02-21 07:53:00,18.0,16.0,-100.00,West,270,0.0,0.0,93,0.00,,,0.00,,2013-02-21 12:53:00,
2013-02-21 08:02:00,18.0,16.0,-100.00,NW,315,0.0,0.0,93,0.00,,,0.00,,2013-02-21 13:02:00,
2013-02-21 08:12:00,18.0,16.0,-100.00,NW,315,2.0,5.0,93,0.00,,,0.00,,2013-02-21 13:12:00,
2013-02-21 08:22:00,18.0,16.0,-100.00,NW,315,2.0,5.0,93,0.00,,,0.00,,2013-02-21 13:22:00,
2013-02-21 08:32:00,17.0,16.0,-100.00,NNE,23,2.0,9.0,94,0.00,,,0.00,,2013-02-21 13:32:00,
2013-02-21 08:41:00,17.0,16.0,-100.00,North,0,6.0,8.0,94,0.00,,,0.00,,2013-02-21 13:41:00,
2013-02-21 08:52:00,17.0,16.0,-100.00,North,0,6.0,8.0,94,0.00,,,0.00,,2013-02-21 13:52:00,
2013-02-21 09:02:00,16.0,15.0,-100.00,NNE,23,7.0,12.0,94,0.00,,,0.00,,2013-02-21 14:02:00,
2013-02-21 09:11:00,16.0,15.0,-100.00,NNE,23,7.0,12.0,94,0.00,,,0.00,,2013-02-21 14:11:00,
2013-02-21 09:22:00,16.0,15.0,-100.00,NE,45,6.0,8.0,94,0.00,,,0.00,,2013-02-21 14:22:00,
2013-02-21 09:32:00,16.0,15.0,-100.00,North,0,7.0,10.0,94,0.00,,,0.00,,2013-02-21 14:32:00,
2013-02-21 09:42:00,16.0,14.0,-100.00,NNE,23,7.0,9.0,93,0.00,,,0.00,,2013-02-21 14:42:00,
2013-02-21 09:52:00,16.0,14.0,-100.00,NNE,23,7.0,9.0,93,0.00,,,0.00,,2013-02-21 14:52:00,
2013-02-21 10:01:00,16.0,14.0,-100.00,NNE,23,6.0,9.0,93,0.00,,,0.00,,2013-02-21 15:01:00,
2013-02-21 10:12:00,16.0,14.0,-100.00,North,0,6.0,9.0,92,0.00,,,0.00,,2013-02-21 15:12:00,
2013-02-21 10:21:00,16.0,14.0,-100.00,North,0,6.0,9.0,92,0.00,,,0.00,,2013-02-21 15:21:00,
2013-02-21 10:32:00,17.0,15.0,-100.00,North,0,6.0,8.0,92,0.00,,,0.00,,2013-02-21 15:32:00,
2013-02-21 10:42:00,17.0,15.0,-100.00,North,0,7.0,8.0,92,0.00,,,0.00,,2013-02-21 15:42:00,
2013-02-21 10:51:00,17.0,15.0,-100.00,North,0,7.0,8.0,92,0.00,,,0.00,,2013-02-21 15:51:00,
2013-02-21 11:02:00,17.0,15.0,-100.00,NE,45,7.0,9.0,92,0.00,,,0.00,,2013-02-21 16:02:00,
2013-02-21 11:12:00,17.0,15.0,-100.00,ENE,68,5.0,5.0,90,0.00,,,0.00,,2013-02-21 16:12:00,
2013-02-21 11:22:00,17.0,15.0,-100.00,ENE,68,5.0,5.0,90,0.00,,,0.00,,2013-02-21 16:22:00,
2013-02-21 11:32:00,17.0,14.0,-100.00,NNW,338,0.0,0.0,88,0.00,,,0.00,,2013-02-21 16:32:00,
2013-02-21 11:42:00,17.0,14.0,-100.00,NNE,23,1.0,7.0,86,0.00,,,0.00,,2013-02-21 16:42:00,
2013-02-21 11:52:00,17.0,14.0,-100.00,NNE,23,1.0,7.0,86,0.00,,,0.00,,2013-02-21 16:52:00,
2013-02-21 12:01:00,18.0,15.0,-100.00,NE,45,5.0,6.0,86,0.00,,,0.00,,2013-02-21 17:01:00,
2013-02-21 12:11:00,19.0,15.0,-100.00,ENE,68,1.0,0.0,83,0.00,,,0.00,,2013-02-21 17:11:00,
2013-02-21 12:21:00,19.0,15.0,-100.00,ENE,68,1.0,0.0,83,0.00,,,0.00,,2013-02-21 17:21:00,
2013-02-21 12:32:00,19.0,15.0,-100.00,NW,315,3.0,8.0,84,0.00,,,0.00,,2013-02-21 17:32:00,
2013-02-21 12:42:00,20.0,16.0,-100.00,WNW,293,3.0,3.0,83,0.00,,,0.00,,2013-02-21 17:42:00,
2013-02-21 12:52:00,20.0,16.0,-100.00,WNW,293,3.0,3.0,83,0.00,,,0.00,,2013-02-21 17:52:00,
2013-02-21 13:02:00,19.0,15.0,-100.00,NW,315,0.0,0.0,83,0.00,,,0.00,,2013-02-21 18:02:00,
2013-02-21 13:12:00,20.0,15.0,-100.00,NNW,338,0.0,0.0,82,0.00,,,0.00,,2013-02-21 18:12:00,
2013-02-21 13:22:00,20.0,15.0,-100.00,NNW,338,0.0,0.0,82,0.00,,,0.00,,2013-02-21 18:22:00,
2013-02-21 13:32:00,20.0,15.0,-100.00,East,90,0.0,0.0,81,0.00,,,0.00,,2013-02-21 18:32:00,
2013-02-21 13:42:00,20.0,15.0,-100.00,East,90,0.0,0.0,81,0.00,,,0.00,,2013-02-21 18:42:00,
2013-02-21 13:52:00,21.0,16.0,-100.00,NNE,23,2.0,3.0,80,0.00,,,0.00,,2013-02-21 18:52:00,
2013-02-21 14:01:00,21.0,16.0,-100.00,NNW,338,0.0,0.0,81,0.00,,,0.00,,2013-02-21 19:01:00,
2013-02-21 14:12:00,21.0,16.0,-100.00,NNW,338,0.0,0.0,81,0.00,,,0.00,,2013-02-21 19:12:00,
2013-02-21 14:21:00,20.0,15.0,-100.00,North,0,0.0,0.0,80,0.00,,,0.00,,2013-02-21 19:21:00,
2013-02-21 14:32:00,21.0,16.0,-100.00,North,0,0.0,0.0,80,0.00,,,0.00,,2013-02-21 19:32:00,
2013-02-21 14:42:00,21.0,16.0,-100.00,North,0,0.0,0.0,80,0.00,,,0.00,,2013-02-21 19:42:00,
2013-02-21 14:52:00,21.0,16.0,-100.00,NE,45,5.0,7.0,79,0.00,,,0.00,,2013-02-21 19:52:00,
2013-02-21 15:01:00,21.0,16.0,-100.00,NE,45,0.0,0.0,79,0.00,,,0.00,,2013-02-21 20:01:00,
2013-02-21 15:11:00,21.0,16.0,-100.00,NNE,23,0.0,6.0,79,0.00,,,0.00,,2013-02-21 20:11:00,
2013-02-21 15:21:00,21.0,16.0,-100.00,NNE,23,0.0,6.0,79,0.00,,,0.00,,2013-02-21 20:21:00,
2013-02-21 15:32:00,21.0,15.0,-100.00,NNE,23,3.0,9.0,78,0.00,,,0.00,,2013-02-21 20:32:00,
2013-02-21 15:41:00,21.0,15.0,-100.00,NNE,23,3.0,9.0,78,0.00,,,0.00,,2013-02-21 20:41:00,
2013-02-21 15:53:00,22.0,16.0,-100.00,NNE,23,6.0,8.0,78,0.00,,,0.00,,2013-02-21 20:53:00,
2013-02-21 16:02:00,22.0,16.0,-100.00,NNE,23,5.0,7.0,77,0.00,,,0.00,,2013-02-21 21:02:00,
2013-02-21 16:12:00,22.0,16.0,-100.00,NE,45,2.0,8.0,78,0.00,,,0.00,,2013-02-21 21:12:00,
2013-02-21 16:21:00,22.0,16.0,-100.00,NE,45,2.0,8.0,78,0.00,,,0.00,,2013-02-21 21:21:00,
2013-02-21 16:31:00,23.0,17.0,-100.00,NE,45,1.0,3.0,77,0.00,,,0.00,,2013-02-21 21:31:00,
2013-02-21 16:42:00,23.0,17.0,-100.00,NNE,23,6.0,9.0,77,0.00,,,0.00,,2013-02-21 21:42:00,
2013-02-21 16:52:00,23.0,17.0,-100.00,NNE,23,6.0,9.0,77,0.00,,,0.00,,2013-02-21 21:52:00,
2013-02-21 17:01:00,23.0,17.0,-100.00,NNE,23,0.0,0.0,78,0.00,,,0.00,,2013-02-21 22:01:00,
2013-02-21 17:11:00,23.0,18.0,-100.00,ENE,68,6.0,7.0,80,0.00,,,0.00,,2013-02-21 22:11:00,
2013-02-21 17:21:00,23.0,18.0,-100.00,ENE,68,6.0,7.0,80,0.00,,,0.00,,2013-02-21 22:21:00,
2013-02-21 17:32:00,22.0,17.0,-100.00,East,90,3.0,5.0,81,0.00,,,0.00,,2013-02-21 22:32:00,
2013-02-21 17:42:00,21.0,16.0,-100.00,NE,45,2.0,6.0,82,0.00,,,0.00,,2013-02-21 22:42:00,
2013-02-21 17:52:00,21.0,16.0,-100.00,NE,45,2.0,6.0,82,0.00,,,0.00,,2013-02-21 22:52:00,
2013-02-21 18:01:00,21.0,17.0,-100.00,ENE,68,3.0,6.0,84,0.00,,,0.00,,2013-02-21 23:01:00,
2013-02-21 18:11:00,21.0,17.0,-100.00,ENE,68,3.0,6.0,84,0.00,,,0.00,,2013-02-21 23:11:00,
2013-02-21 18:21:00,21.0,17.0,-100.00,East,90,7.0,9.0,84,0.00,,,0.00,,2013-02-21 23:21:00,
2013-02-21 18:32:00,20.0,16.0,-100.00,East,90,6.0,10.0,85,0.00,,,0.00,,2013-02-21 23:32:00,
2013-02-21 18:42:00,20.0,16.0,-100.00,East,90,6.0,10.0,85,0.00,,,0.00,,2013-02-21 23:42:00,
2013-02-21 18:52:00,20.0,17.0,-100.00,ENE,68,6.0,8.0,87,0.00,,,0.00,,2013-02-21 23:52:00,
2013-02-21 19:01:00,20.0,17.0,-100.00,ENE,68,5.0,8.0,88,0.00,,,0.00,,2013-02-22 00:01:00,
2013-02-21 19:11:00,20.0,17.0,-100.00,ENE,68,5.0,8.0,88,0.00,,,0.00,,2013-02-22 00:11:00,
2013-02-21 19:21:00,19.0,16.0,-100.00,NE,45,6.0,10.0,88,0.00,,,0.00,,2013-02-22 00:21:00,
2013-02-21 19:32:00,19.0,16.0,-100.00,ENE,68,6.0,9.0,89,0.00,,,0.00,,2013-02-22 00:32:00,
2013-02-21 19:42:00,19.0,16.0,-100.00,ENE,68,6.0,9.0,89,0.00,,,0.00,,2013-02-22 00:42:00,
2013-02-21 19:52:00,19.0,17.0,-100.00,NE,45,6.0,8.0,90,0.00,,,0.00,,2013-02-22 00:52:00,
2013-02-21 20:01:00,19.0,17.0,-100.00,NE,45,7.0,10.0,91,0.00,,,0.00,,2013-02-22 01:01:00,
2013-02-21 20:11:00,19.0,17.0,-100.00,NE,45,7.0,10.0,91,0.00,,,0.00,,2013-02-22 01:11:00,
2013-02-21 20:21:00,19.0,17.0,-100.00,ENE,68,6.0,8.0,91,0.00,,,0.00,,2013-02-22 01:21:00,
2013-02-21 20:32:00,19.0,17.0,-100.00,ENE,68,7.0,12.0,92,0.00,,,0.00,,2013-02-22 01:32:00,
2013-02-21 20:42:00,19.0,17.0,-100.00,East,90,3.0,7.0,92,0.00,,,0.00,,2013-02-22 01:42:00,
2013-02-21 20:52:00,19.0,17.0,-100.00,East,90,3.0,7.0,92,0.00,,,0.00,,2013-02-22 01:52:00,
2013-02-21 21:02:00,19.0,17.0,-100.00,East,90,3.0,6.0,92,0.00,,,0.00,,2013-02-22 02:02:00,
2013-02-21 21:11:00,19.0,17.0,-100.00,NE,45,7.0,16.0,93,0.00,,,0.00,,2013-02-22 02:11:00,
2013-02-21 21:21:00,19.0,17.0,-100.00,NE,45,7.0,16.0,93,0.00,,,0.00,,2013-02-22 02:21:00,
2013-02-21 21:32:00,19.0,17.0,-100.00,NE,45,5.0,8.0,93,0.00,,,0.00,,2013-02-22 02:32:00,
2013-02-21 21:42:00,20.0,19.0,-100.00,NE,45,7.0,10.0,94,0.00,,,0.00,,2013-02-22 02:42:00,
2013-02-21 21:52:00,20.0,19.0,-100.00,NE,45,7.0,10.0,94,0.00,,,0.00,,2013-02-22 02:52:00,
2013-02-21 22:01:00,20.0,19.0,-100.00,ENE,68,8.0,13.0,94,0.00,,,0.00,,2013-02-22 03:01:00,
2013-02-21 22:11:00,20.0,19.0,-100.00,NE,45,8.0,14.0,95,0.00,,,0.00,,2013-02-22 03:11:00,
2013-02-21 22:21:00,20.0,19.0,-100.00,NE,45,8.0,14.0,95,0.00,,,0.00,,2013-02-22 03:21:00,
2013-02-21 22:32:00,20.0,19.0,-100.00,East,90,2.0,9.0,96,0.00,,,0.00,,2013-02-22 03:32:00,
2013-02-21 22:42:00,20.0,19.0,-100.00,East,90,2.0,9.0,96,0.00,,,0.00,,2013-02-22 03:42:00,
2013-02-21 22:52:00,20.0,19.0,-100.00,ENE,68,7.0,9.0,97,0.00,,,0.00,,2013-02-22 03:52:00,
2013-02-21 23:02:00,20.0,19.0,-100.00,NE,45,7.0,9.0,97,0.00,,,0.00,,2013-02-22 04:02:00,
2013-02-21 23:11:00,21.0,21.0,-100.00,East,90,3.0,7.0,98,0.00,,,0.00,,2013-02-22 04:11:00,
2013-02-21 23:21:00,21.0,21.0,-100.00,East,90,3.0,7.0,98,0.00,,,0.00,,2013-02-22 04:21:00,
2013-02-21 23:32:00,21.0,21.0,-100.00,East,90,5.0,6.0,99,0.00,,,0.00,,2013-02-22 04:32:00,
2013-02-21 23:42:00,21.0,21.0,-100.00,ENE,68,3.0,6.0,100,0.00,,,0.00,,2013-02-22 04:42:00,
2013-02-21 23:52:00,21.0,21.0,-100.00,ENE,68,3.0,6.0,100,0.00,,,0.00,,2013-02-22 04:52:00,